Terminal Aerodrome Forecast
Issued by NWS Charleston, WV

Current Version | Previous Version | Graphics & Text | Print | Product List | Glossary On
Versions: 1 2 3 4 5 6 7 8 9 10 11 12 13 14 15 16 17 18 19 20 21 22 23
000
FTUS41 KRLX 030500 RRA
TAFCRW
TAF
KCRW 030543Z 0306/0406 09005KT P6SM OVC200
     FM031300 13006KT P6SM -RA OVC080
     FM031500 15009KT P6SM OVC040
     FM032300 19012KT P6SM OVC020
     FM040100 20009KT 5SM -RA OVC020=

USA.gov is the U.S. government's official web portal to all federal, state and local government web resources and services.